Aérodrome :
LOGIN :

S'inscrire | Disclaimer

   EN    FR    IT 

 










Légende :    VFR   VFR Marginal   IFR   IFR Intensif   IFR Très Intensif
Visi : 
Plafond : 
>= 8 km
>= 3000ft
5 à 8 km
1000 à 3000 ft
1500m à 5 km
500 à 1000 ft
800 à 1500m
200 à 500 ft
< 800m
< 200 ft
Symboles :   Orages  Brouillard  Fortes neiges  Fortes précipitations  Vent > 20 kt
SIGMETs :   Divers  Orages  Givrage  Turbulence  Onde Orograph.  Cendres Volcan.






- Altitude de l'aérodrome : 24 ft
- Code IATA : FAO


LPFR - Faro

DERNIER METAR :
  • 270730Z 02003KT CAVOK 20/16 Q1021

METARs EXPIRÉS :
  • 270700Z 00000KT CAVOK 18/16 Q1021
  • 270630Z 05001KT CAVOK 18/16 Q1021
  • 270600Z VRB02KT CAVOK 18/16 Q1021
  • 270530Z 03003KT 340V070 CAVOK 18/17 Q1021
  • 270500Z 16002KT CAVOK 18/16 Q1020

TAF TAF LPFR
Valide du 27 à 06h jusqu'au 28 à 06h UTC


270500Z 2706/2806 VRB05KT CAVOK
BECMG 2709/2711 21007KT
BECMG 2714/2716 26010KT
BECMG 2718/2721 30007KT
BECMG 2800/2803 36005KT



MET'MAP, la Météo Aéronautique d'un coup d'oeil ! - Copyright ORBIFLY Décembre 2007 - Disclaimer

ORBIFLY MET'MAP TEAM :

Programmation & Développement : Alexandra Zaïnal
Sur une idée originale de : Baudouin d'Aumeries
Assistance à la programmation : Marc-Olivier Méhu
Soutien technique & logistique : Manuel Goepfert

Contact : metmap@orbifly.com




SOURCES & CREDITS :

   NOAA